sensor_id;sensor_type;location;lat;lon;timestamp;pressure;altitude;pressure_sealevel;temperature;humidity
80911;BME280;70359;51.420;7.032;2023-12-22T00:00:27;986.1509;;;7.92;58.75879
80911;BME280;70359;51.420;7.032;2023-12-22T00:02:52;986.0547;;;7.79;58.5498
80911;BME280;70359;51.420;7.032;2023-12-22T00:05:17;986.0055;;;7.91;58.52051
80911;BME280;70359;51.420;7.032;2023-12-22T00:07:42;985.9958;;;7.86;59.08887
80911;BME280;70359;51.420;7.032;2023-12-22T00:10:07;985.9633;;;7.85;59.42383
80911;BME280;70359;51.420;7.032;2023-12-22T00:12:32;986.0517;;;7.86;59.68457
80911;BME280;70359;51.420;7.032;2023-12-22T00:14:57;986.0679;;;7.83;59.44336
80911;BME280;70359;51.420;7.032;2023-12-22T00:17:22;986.017;;;7.58;59.94824
80911;BME280;70359;51.420;7.032;2023-12-22T00:19:47;986.0156;;;7.82;59.50977
80911;BME280;70359;51.420;7.032;2023-12-22T00:22:12;986.0758;;;7.82;59.47656
80911;BME280;70359;51.420;7.032;2023-12-22T00:24:37;986.1317;;;7.8;59.92383
80911;BME280;70359;51.420;7.032;2023-12-22T00:27:02;986.1501;;;7.83;59.71387
80911;BME280;70359;51.420;7.032;2023-12-22T00:29:27;986.1626;;;7.81;59.75586
80911;BME280;70359;51.420;7.032;2023-12-22T00:31:52;986.272;;;7.83;60.09668
80911;BME280;70359;51.420;7.032;2023-12-22T00:34:17;986.3544;;;7.79;60.55176
80911;BME280;70359;51.420;7.032;2023-12-22T00:36:42;986.3086;;;7.82;60.47656
80911;BME280;70359;51.420;7.032;2023-12-22T00:39:07;986.5363;;;7.77;60.46973
80911;BME280;70359;51.420;7.032;2023-12-22T00:41:32;986.4331;;;7.82;60.44336
80911;BME280;70359;51.420;7.032;2023-12-22T00:43:57;986.4155;;;7.8;60.06934
80911;BME280;70359;51.420;7.032;2023-12-22T00:46:22;986.4573;;;7.79;60.43945
80911;BME280;70359;51.420;7.032;2023-12-22T00:48:47;986.3331;;;7.73;60.94727
80911;BME280;70359;51.420;7.032;2023-12-22T00:51:12;986.41;;;7.82;60.95996
80911;BME280;70359;51.420;7.032;2023-12-22T00:53:37;986.5414;;;7.93;60.6377
80911;BME280;70359;51.420;7.032;2023-12-22T00:56:03;986.4537;;;7.94;60.56152
80911;BME280;70359;51.420;7.032;2023-12-22T00:58:27;986.5237;;;7.96;60.04688
80911;BME280;70359;51.420;7.032;2023-12-22T01:00:52;986.5212;;;8.01;59.65918
80911;BME280;70359;51.420;7.032;2023-12-22T01:03:17;986.4546;;;7.99;60.57813
80911;BME280;70359;51.420;7.032;2023-12-22T01:05:42;986.4849;;;8.03;60.62891
80911;BME280;70359;51.420;7.032;2023-12-22T01:08:07;986.5616;;;8.03;60.60645
80911;BME280;70359;51.420;7.032;2023-12-22T01:10:32;986.5858;;;8.06;60.36328
80911;BME280;70359;51.420;7.032;2023-12-22T01:12:57;986.5232;;;7.98;60.86914
80911;BME280;70359;51.420;7.032;2023-12-22T01:15:22;986.6122;;;8.08;60.15234
80911;BME280;70359;51.420;7.032;2023-12-22T01:17:47;986.5421;;;8.04;60.99023
80911;BME280;70359;51.420;7.032;2023-12-22T01:20:12;986.4405;;;8.13;60.40723
80911;BME280;70359;51.420;7.032;2023-12-22T01:22:37;986.3736;;;7.99;60.27539
80911;BME280;70359;51.420;7.032;2023-12-22T01:25:02;986.4306;;;7.95;60.0332
80911;BME280;70359;51.420;7.032;2023-12-22T01:27:27;986.5807;;;7.81;59.45215
80911;BME280;70359;51.420;7.032;2023-12-22T01:29:52;986.6298;;;7.95;59.40332
80911;BME280;70359;51.420;7.032;2023-12-22T01:32:17;986.6769;;;7.94;59.52734
80911;BME280;70359;51.420;7.032;2023-12-22T01:34:42;986.9071;;;7.96;60.02344
80911;BME280;70359;51.420;7.032;2023-12-22T01:37:07;987.1495;;;7.79;60.6416
80911;BME280;70359;51.420;7.032;2023-12-22T01:39:32;987.1355;;;7.72;59.99121
80911;BME280;70359;51.420;7.032;2023-12-22T01:41:57;987.2494;;;7.72;59.49609
80911;BME280;70359;51.420;7.032;2023-12-22T01:44:22;987.0798;;;7.57;59.05957
80911;BME280;70359;51.420;7.032;2023-12-22T01:46:47;987.0806;;;7.46;59.52832
80911;BME280;70359;51.420;7.032;2023-12-22T01:49:12;987.0239;;;7.31;58.76563
80911;BME280;70359;51.420;7.032;2023-12-22T01:51:37;986.9716;;;7.26;59.73535
80911;BME280;70359;51.420;7.032;2023-12-22T01:54:02;987.0564;;;7.21;60.4707
80911;BME280;70359;51.420;7.032;2023-12-22T01:56:27;986.9639;;;7.22;59.77637
80911;BME280;70359;51.420;7.032;2023-12-22T01:58:53;986.965;;;7.12;60.68359
80911;BME280;70359;51.420;7.032;2023-12-22T02:01:17;987.373;;;7.1;60.74707
80911;BME280;70359;51.420;7.032;2023-12-22T02:03:42;987.4179;;;6.97;61.12109
80911;BME280;70359;51.420;7.032;2023-12-22T02:06:07;987.3195;;;6.98;61.68457
80911;BME280;70359;51.420;7.032;2023-12-22T02:08:32;987.1599;;;7.11;61.46582
80911;BME280;70359;51.420;7.032;2023-12-22T02:10:57;987.0577;;;7.06;62.33398
80911;BME280;70359;51.420;7.032;2023-12-22T02:13:22;987.118;;;7.1;60.89355
80911;BME280;70359;51.420;7.032;2023-12-22T02:15:47;987.0697;;;7.18;61.62305
80911;BME280;70359;51.420;7.032;2023-12-22T02:18:14;986.8265;;;7.13;62.05273
80911;BME280;70359;51.420;7.032;2023-12-22T02:20:37;986.9592;;;7.11;61.76855
80911;BME280;70359;51.420;7.032;2023-12-22T02:23:02;987.016;;;7.12;62.41211
80911;BME280;70359;51.420;7.032;2023-12-22T02:25:27;987.0706;;;7.13;62.57031
80911;BME280;70359;51.420;7.032;2023-12-22T02:27:53;987.0923;;;7.17;62.3623
80911;BME280;70359;51.420;7.032;2023-12-22T02:30:18;987.1664;;;7.24;62.14746
80911;BME280;70359;51.420;7.032;2023-12-22T02:32:42;987.2062;;;7.18;62.48633
80911;BME280;70359;51.420;7.032;2023-12-22T02:35:08;987.1064;;;7.06;62.87207
80911;BME280;70359;51.420;7.032;2023-12-22T02:37:32;987.4601;;;7.09;62.65332
80911;BME280;70359;51.420;7.032;2023-12-22T02:39:57;987.2485;;;7.12;62.82715
80911;BME280;70359;51.420;7.032;2023-12-22T02:42:22;987.1817;;;7.07;62.74023
80911;BME280;70359;51.420;7.032;2023-12-22T02:44:47;986.9049;;;7.17;62.37305
80911;BME280;70359;51.420;7.032;2023-12-22T02:47:12;986.8128;;;7.11;62.82324
80911;BME280;70359;51.420;7.032;2023-12-22T02:49:37;986.8894;;;7.19;62.04883
80911;BME280;70359;51.420;7.032;2023-12-22T02:52:02;986.7545;;;7.13;62.54688
80911;BME280;70359;51.420;7.032;2023-12-22T02:54:27;987.0225;;;7.08;63.58301
80911;BME280;70359;51.420;7.032;2023-12-22T02:56:52;986.735;;;7.08;63.44727
80911;BME280;70359;51.420;7.032;2023-12-22T02:59:17;986.7847;;;7.19;62.36621
80911;BME280;70359;51.420;7.032;2023-12-22T03:01:42;986.7203;;;7.25;62.49609
80911;BME280;70359;51.420;7.032;2023-12-22T03:04:07;986.947;;;7.19;61.63379
80911;BME280;70359;51.420;7.032;2023-12-22T03:06:32;986.9394;;;7.12;62.1875
80911;BME280;70359;51.420;7.032;2023-12-22T03:08:57;986.8232;;;7.2;62.28711
80911;BME280;70359;51.420;7.032;2023-12-22T03:11:22;986.8872;;;6.96;62.73633
80911;BME280;70359;51.420;7.032;2023-12-22T03:13:47;986.8683;;;6.91;62.98633
80911;BME280;70359;51.420;7.032;2023-12-22T03:16:12;986.8973;;;7.04;62.84766
80911;BME280;70359;51.420;7.032;2023-12-22T03:18:37;986.8884;;;6.99;63.60449
80911;BME280;70359;51.420;7.032;2023-12-22T03:21:02;986.9797;;;7.02;63.47266
80911;BME280;70359;51.420;7.032;2023-12-22T03:23:27;987.0242;;;7.06;63.69141
80911;BME280;70359;51.420;7.032;2023-12-22T03:25:52;986.9687;;;7.12;63.55469
80911;BME280;70359;51.420;7.032;2023-12-22T03:28:17;986.9855;;;7.24;62.96582
80911;BME280;70359;51.420;7.032;2023-12-22T03:30:42;986.8892;;;7.33;62.82129
80911;BME280;70359;51.420;7.032;2023-12-22T03:33:07;986.9042;;;7.36;63.07422
80911;BME280;70359;51.420;7.032;2023-12-22T03:35:32;986.9587;;;7.38;62.68457
80911;BME280;70359;51.420;7.032;2023-12-22T03:37:57;987.128;;;7.34;62.7666
80911;BME280;70359;51.420;7.032;2023-12-22T03:40:22;986.7828;;;7.35;63.0498
80911;BME280;70359;51.420;7.032;2023-12-22T03:42:47;986.8677;;;7.35;62.9502
80911;BME280;70359;51.420;7.032;2023-12-22T03:45:12;986.8933;;;7.37;62.90723
80911;BME280;70359;51.420;7.032;2023-12-22T03:47:37;986.9478;;;7.39;63.07813
80911;BME280;70359;51.420;7.032;2023-12-22T03:50:02;986.9594;;;7.43;63.29785
80911;BME280;70359;51.420;7.032;2023-12-22T03:52:27;986.9158;;;7.6;62.82715
80911;BME280;70359;51.420;7.032;2023-12-22T03:54:52;986.9696;;;7.71;62.35059
80911;BME280;70359;51.420;7.032;2023-12-22T03:57:17;987.0513;;;7.76;62.16504
80911;BME280;70359;51.420;7.032;2023-12-22T03:59:42;987.0447;;;7.84;61.7041
80911;BME280;70359;51.420;7.032;2023-12-22T04:02:07;987.1047;;;7.65;61.94727
80911;BME280;70359;51.420;7.032;2023-12-22T04:04:32;987.031;;;7.69;62.00879
80911;BME280;70359;51.420;7.032;2023-12-22T04:06:57;986.914;;;7.71;62.06836
80911;BME280;70359;51.420;7.032;2023-12-22T04:09:22;986.919;;;7.56;62.45117
80911;BME280;70359;51.420;7.032;2023-12-22T04:11:47;987.0906;;;7.63;62.21582
80911;BME280;70359;51.420;7.032;2023-12-22T04:14:12;987.0416;;;7.73;61.86914
80911;BME280;70359;51.420;7.032;2023-12-22T04:16:39;987.1502;;;7.73;62.04883
80911;BME280;70359;51.420;7.032;2023-12-22T04:19:02;987.1494;;;7.7;61.9668
80911;BME280;70359;51.420;7.032;2023-12-22T04:21:28;987.0936;;;7.73;61.63281
80911;BME280;70359;51.420;7.032;2023-12-22T04:23:52;986.9235;;;7.67;61.79297
80911;BME280;70359;51.420;7.032;2023-12-22T04:26:17;986.8943;;;7.64;62.36133
80911;BME280;70359;51.420;7.032;2023-12-22T04:28:42;986.7291;;;7.7;62.49414
80911;BME280;70359;51.420;7.032;2023-12-22T04:31:07;986.7629;;;7.7;62.26855
80911;BME280;70359;51.420;7.032;2023-12-22T04:33:32;986.8137;;;7.75;61.9043
80911;BME280;70359;51.420;7.032;2023-12-22T04:35:57;986.7949;;;7.75;61.71387
80911;BME280;70359;51.420;7.032;2023-12-22T04:38:22;986.9839;;;7.6;61.49219
80911;BME280;70359;51.420;7.032;2023-12-22T04:40:47;987.228;;;7.8;61.41895
80911;BME280;70359;51.420;7.032;2023-12-22T04:43:12;987.3939;;;7.81;61.8916
80911;BME280;70359;51.420;7.032;2023-12-22T04:45:37;987.2417;;;7.75;61.52246
80911;BME280;70359;51.420;7.032;2023-12-22T04:48:02;987.3226;;;7.7;61.29102
80911;BME280;70359;51.420;7.032;2023-12-22T04:50:27;987.6135;;;7.73;62.4873
80911;BME280;70359;51.420;7.032;2023-12-22T04:52:52;987.5206;;;7.73;62.39746
80911;BME280;70359;51.420;7.032;2023-12-22T04:55:17;987.5532;;;7.78;62.47266
80911;BME280;70359;51.420;7.032;2023-12-22T04:57:42;987.397;;;7.75;62.43359
80911;BME280;70359;51.420;7.032;2023-12-22T05:00:08;987.5511;;;7.7;62.66309
80911;BME280;70359;51.420;7.032;2023-12-22T05:02:32;987.5941;;;7.66;63.43164
80911;BME280;70359;51.420;7.032;2023-12-22T05:04:57;987.5276;;;7.72;62.82227
80911;BME280;70359;51.420;7.032;2023-12-22T05:07:22;987.6138;;;7.72;63.03613
80911;BME280;70359;51.420;7.032;2023-12-22T05:09:47;987.9512;;;7.73;63.53125
80911;BME280;70359;51.420;7.032;2023-12-22T05:12:12;987.7994;;;7.76;62.91797
80911;BME280;70359;51.420;7.032;2023-12-22T05:14:37;987.801;;;7.8;62.29492
80911;BME280;70359;51.420;7.032;2023-12-22T05:17:02;987.8298;;;7.71;62.21484
80911;BME280;70359;51.420;7.032;2023-12-22T05:19:27;987.6721;;;7.73;62.20605
80911;BME280;70359;51.420;7.032;2023-12-22T05:21:52;987.6719;;;7.76;62.0752
80911;BME280;70359;51.420;7.032;2023-12-22T05:24:17;987.6356;;;7.72;61.7666
80911;BME280;70359;51.420;7.032;2023-12-22T05:26:42;987.6619;;;7.68;62.46777
80911;BME280;70359;51.420;7.032;2023-12-22T05:29:07;987.6752;;;7.64;62.5752
80911;BME280;70359;51.420;7.032;2023-12-22T05:31:32;987.7737;;;7.67;62.30957
80911;BME280;70359;51.420;7.032;2023-12-22T05:33:57;987.7857;;;7.67;62.39941
80911;BME280;70359;51.420;7.032;2023-12-22T05:36:22;987.8067;;;7.73;62.35352
80911;BME280;70359;51.420;7.032;2023-12-22T05:38:47;987.7982;;;7.72;61.95801
80911;BME280;70359;51.420;7.032;2023-12-22T05:41:12;987.7488;;;7.72;62.32813
80911;BME280;70359;51.420;7.032;2023-12-22T05:43:37;987.7012;;;7.69;62.57129
80911;BME280;70359;51.420;7.032;2023-12-22T05:46:02;987.8359;;;7.57;62.56445
80911;BME280;70359;51.420;7.032;2023-12-22T05:48:27;987.8301;;;7.53;63.2334
80911;BME280;70359;51.420;7.032;2023-12-22T05:50:52;987.8935;;;7.57;63.375
80911;BME280;70359;51.420;7.032;2023-12-22T05:53:17;987.8778;;;7.67;62.9043
80911;BME280;70359;51.420;7.032;2023-12-22T05:55:42;987.83;;;7.69;63.11035
80911;BME280;70359;51.420;7.032;2023-12-22T05:58:07;987.8614;;;7.66;63.20703
80911;BME280;70359;51.420;7.032;2023-12-22T06:00:32;987.8653;;;7.67;62.83691
80911;BME280;70359;51.420;7.032;2023-12-22T06:02:57;987.8752;;;7.78;62.80762
80911;BME280;70359;51.420;7.032;2023-12-22T06:05:22;987.9451;;;7.76;62.6709
80911;BME280;70359;51.420;7.032;2023-12-22T06:07:47;987.8976;;;7.73;62.57715
80911;BME280;70359;51.420;7.032;2023-12-22T06:10:12;987.8615;;;7.77;61.84082
80911;BME280;70359;51.420;7.032;2023-12-22T06:12:37;987.805;;;7.85;61.9082
80911;BME280;70359;51.420;7.032;2023-12-22T06:15:03;987.7653;;;7.83;61.89551
80911;BME280;70359;51.420;7.032;2023-12-22T06:17:27;987.8127;;;7.93;61.77344
80911;BME280;70359;51.420;7.032;2023-12-22T06:19:52;987.8608;;;7.92;61.82813
80911;BME280;70359;51.420;7.032;2023-12-22T06:22:17;987.9672;;;7.87;61.95703
80911;BME280;70359;51.420;7.032;2023-12-22T06:24:42;987.9579;;;7.83;62.55762
80911;BME280;70359;51.420;7.032;2023-12-22T06:27:07;987.8898;;;7.76;62.9082
80911;BME280;70359;51.420;7.032;2023-12-22T06:29:32;987.9459;;;7.78;62.57227
80911;BME280;70359;51.420;7.032;2023-12-22T06:31:57;987.8658;;;7.81;62.91406
80911;BME280;70359;51.420;7.032;2023-12-22T06:34:22;987.9402;;;7.82;62.80273
80911;BME280;70359;51.420;7.032;2023-12-22T06:36:47;988.0242;;;7.86;62.5293
80911;BME280;70359;51.420;7.032;2023-12-22T06:39:12;987.981;;;7.83;62.80469
80911;BME280;70359;51.420;7.032;2023-12-22T06:41:37;988.0993;;;7.86;62.57227
80911;BME280;70359;51.420;7.032;2023-12-22T06:44:02;988.0836;;;7.79;63.03516
80911;BME280;70359;51.420;7.032;2023-12-22T06:46:28;987.8369;;;7.74;61.97168
80911;BME280;70359;51.420;7.032;2023-12-22T06:48:53;987.8647;;;7.88;62.08008
80911;BME280;70359;51.420;7.032;2023-12-22T06:51:20;987.8959;;;7.93;62.14551
80911;BME280;70359;51.420;7.032;2023-12-22T06:53:42;987.9977;;;7.99;62.01758
80911;BME280;70359;51.420;7.032;2023-12-22T06:56:09;988.0117;;;8.05;62.07227
80911;BME280;70359;51.420;7.032;2023-12-22T06:58:32;987.9336;;;8.11;61.98926
80911;BME280;70359;51.420;7.032;2023-12-22T07:00:57;987.8432;;;8.12;61.93652
80911;BME280;70359;51.420;7.032;2023-12-22T07:03:22;987.8245;;;8.15;62.03027
80911;BME280;70359;51.420;7.032;2023-12-22T07:05:47;987.778;;;8.24;61.50293
80911;BME280;70359;51.420;7.032;2023-12-22T07:08:12;987.7327;;;8.18;61.16797
80911;BME280;70359;51.420;7.032;2023-12-22T07:10:37;987.6866;;;8.27;61.38184
80911;BME280;70359;51.420;7.032;2023-12-22T07:13:02;987.6577;;;8.17;61.18945
80911;BME280;70359;51.420;7.032;2023-12-22T07:15:27;987.5363;;;8.34;60.66016
80911;BME280;70359;51.420;7.032;2023-12-22T07:17:52;987.6454;;;8.18;61.4043
80911;BME280;70359;51.420;7.032;2023-12-22T07:20:17;987.6036;;;8.01;61.35938
80911;BME280;70359;51.420;7.032;2023-12-22T07:22:43;987.6637;;;7.99;61.79492
80911;BME280;70359;51.420;7.032;2023-12-22T07:25:08;987.6181;;;8.01;61.875
80911;BME280;70359;51.420;7.032;2023-12-22T07:27:32;987.5661;;;8.05;61.8125
80911;BME280;70359;51.420;7.032;2023-12-22T07:29:57;987.5613;;;8.19;61.24805
80911;BME280;70359;51.420;7.032;2023-12-22T07:32:23;987.5655;;;8.2;60.99219
80911;BME280;70359;51.420;7.032;2023-12-22T07:34:48;987.5438;;;8.15;61.20898
80911;BME280;70359;51.420;7.032;2023-12-22T07:37:12;987.6163;;;8.19;61.12402
80911;BME280;70359;51.420;7.032;2023-12-22T07:39:38;987.6437;;;8.15;61.26563
80911;BME280;70359;51.420;7.032;2023-12-22T07:42:03;987.6956;;;8.13;61.44141
80911;BME280;70359;51.420;7.032;2023-12-22T07:44:28;987.7205;;;8.18;61.70801
80911;BME280;70359;51.420;7.032;2023-12-22T07:46:59;987.7684;;;8.12;62.02539
80911;BME280;70359;51.420;7.032;2023-12-22T07:49:18;987.6417;;;8.23;62.32324
80911;BME280;70359;51.420;7.032;2023-12-22T07:51:43;987.7708;;;8.08;62.68262
80911;BME280;70359;51.420;7.032;2023-12-22T07:54:08;987.5952;;;8.2;62.67871
80911;BME280;70359;51.420;7.032;2023-12-22T07:56:33;987.572;;;8.21;62.55566
80911;BME280;70359;51.420;7.032;2023-12-22T07:58:58;987.5338;;;8.13;63.12793
80911;BME280;70359;51.420;7.032;2023-12-22T08:01:23;987.5261;;;8.1;63.02344
80911;BME280;70359;51.420;7.032;2023-12-22T08:03:48;987.5997;;;8.17;63.41602
80911;BME280;70359;51.420;7.032;2023-12-22T08:06:13;987.5367;;;8.25;62.89941
80911;BME280;70359;51.420;7.032;2023-12-22T08:08:38;987.5656;;;8.31;63.01953
80911;BME280;70359;51.420;7.032;2023-12-22T08:11:03;987.6039;;;8.18;62.87793
80911;BME280;70359;51.420;7.032;2023-12-22T08:13:28;987.608;;;8.24;63.26758
80911;BME280;70359;51.420;7.032;2023-12-22T08:15:53;987.6294;;;8.31;63.33594
80911;BME280;70359;51.420;7.032;2023-12-22T08:18:18;987.7263;;;8.2;63.66895
80911;BME280;70359;51.420;7.032;2023-12-22T08:20:43;987.7291;;;8.34;63.50684
80911;BME280;70359;51.420;7.032;2023-12-22T08:23:08;987.8148;;;8.38;63.60352
80911;BME280;70359;51.420;7.032;2023-12-22T08:25:33;987.7733;;;8.44;63.43262
80911;BME280;70359;51.420;7.032;2023-12-22T08:27:58;987.7431;;;8.28;64.21875
80911;BME280;70359;51.420;7.032;2023-12-22T08:30:23;987.8628;;;8.18;64.33887
80911;BME280;70359;51.420;7.032;2023-12-22T08:32:48;987.8156;;;8.2;64.71289
80911;BME280;70359;51.420;7.032;2023-12-22T08:35:13;987.8078;;;8.3;64.83008
80911;BME280;70359;51.420;7.032;2023-12-22T08:37:38;987.9258;;;8.34;64.74414
80911;BME280;70359;51.420;7.032;2023-12-22T08:40:03;987.9678;;;8.44;64.37793
80911;BME280;70359;51.420;7.032;2023-12-22T08:42:28;987.8344;;;8.55;64.52832
80911;BME280;70359;51.420;7.032;2023-12-22T08:44:53;987.7534;;;8.67;64.18555
80911;BME280;70359;51.420;7.032;2023-12-22T08:47:18;987.7742;;;8.72;63.67578
80911;BME280;70359;51.420;7.032;2023-12-22T08:49:43;987.7473;;;8.81;63.3623
80911;BME280;70359;51.420;7.032;2023-12-22T08:52:08;987.7769;;;8.76;63.77148
80911;BME280;70359;51.420;7.032;2023-12-22T08:54:33;987.8514;;;8.85;63.67188
80911;BME280;70359;51.420;7.032;2023-12-22T08:56:58;987.8813;;;8.8;63.81152
80911;BME280;70359;51.420;7.032;2023-12-22T08:59:23;987.858;;;8.82;63.8252
80911;BME280;70359;51.420;7.032;2023-12-22T09:01:48;987.7249;;;8.81;63.84766
80911;BME280;70359;51.420;7.032;2023-12-22T09:04:13;987.7922;;;8.81;63.99121
80911;BME280;70359;51.420;7.032;2023-12-22T09:06:38;987.7417;;;8.85;64.02051
80911;BME280;70359;51.420;7.032;2023-12-22T09:09:03;987.8848;;;8.82;64.37695
80911;BME280;70359;51.420;7.032;2023-12-22T09:11:28;987.6454;;;8.75;63.91602
80911;BME280;70359;51.420;7.032;2023-12-22T09:13:53;987.5812;;;8.71;63.74121
80911;BME280;70359;51.420;7.032;2023-12-22T09:16:20;987.6118;;;8.74;63.31934
80911;BME280;70359;51.420;7.032;2023-12-22T09:18:43;987.6475;;;8.77;63.33301
80911;BME280;70359;51.420;7.032;2023-12-22T09:21:08;987.5151;;;8.75;63.65723
80911;BME280;70359;51.420;7.032;2023-12-22T09:23:33;987.526;;;8.78;63.82031
80911;BME280;70359;51.420;7.032;2023-12-22T09:25:58;987.5583;;;8.78;63.63867
80911;BME280;70359;51.420;7.032;2023-12-22T09:28:23;987.6428;;;8.75;64.12988
80911;BME280;70359;51.420;7.032;2023-12-22T09:30:48;987.5327;;;8.74;64.29883
80911;BME280;70359;51.420;7.032;2023-12-22T09:33:13;987.5212;;;8.8;64.30566
80911;BME280;70359;51.420;7.032;2023-12-22T09:35:38;987.5458;;;8.78;64.68652
80911;BME280;70359;51.420;7.032;2023-12-22T09:38:03;987.4771;;;8.83;64.76074
80911;BME280;70359;51.420;7.032;2023-12-22T09:40:28;986.7631;;;8.72;64.90234
80911;BME280;70359;51.420;7.032;2023-12-22T09:42:54;987.4957;;;8.84;64.63867
80911;BME280;70359;51.420;7.032;2023-12-22T09:45:19;987.4344;;;8.86;64.93457
80911;BME280;70359;51.420;7.032;2023-12-22T09:47:43;987.4288;;;8.83;65.06641
80911;BME280;70359;51.420;7.032;2023-12-22T09:50:08;987.3933;;;8.86;65.21484
80911;BME280;70359;51.420;7.032;2023-12-22T09:52:33;987.4017;;;8.89;65.13086
80911;BME280;70359;51.420;7.032;2023-12-22T09:54:58;987.2859;;;8.92;65.01074
80911;BME280;70359;51.420;7.032;2023-12-22T09:57:23;987.3533;;;8.94;64.82324
80911;BME280;70359;51.420;7.032;2023-12-22T09:59:48;987.2447;;;9.01;64.47266
80911;BME280;70359;51.420;7.032;2023-12-22T10:02:13;987.2726;;;9.08;64.76465
80911;BME280;70359;51.420;7.032;2023-12-22T10:04:38;987.1581;;;9.12;64.88379
80911;BME280;70359;51.420;7.032;2023-12-22T10:07:03;987.1903;;;9.09;65.05859
80911;BME280;70359;51.420;7.032;2023-12-22T10:09:28;987.033;;;9.08;65.49609
80911;BME280;70359;51.420;7.032;2023-12-22T10:11:53;986.9844;;;9.11;65.47949
80911;BME280;70359;51.420;7.032;2023-12-22T10:14:18;986.9031;;;9.15;65.85645
80911;BME280;70359;51.420;7.032;2023-12-22T10:16:43;987.1116;;;9.15;65.62012
80911;BME280;70359;51.420;7.032;2023-12-22T10:19:08;987.2375;;;9.14;65.75391
80911;BME280;70359;51.420;7.032;2023-12-22T10:21:33;986.9939;;;9.15;65.7666
80911;BME280;70359;51.420;7.032;2023-12-22T10:23:58;987.2999;;;9.17;65.78027
80911;BME280;70359;51.420;7.032;2023-12-22T10:26:23;987.1158;;;9.24;65.62109
80911;BME280;70359;51.420;7.032;2023-12-22T10:28:50;987.0382;;;9.26;65.64746
80911;BME280;70359;51.420;7.032;2023-12-22T10:31:13;987.0823;;;9.34;65.26465
80911;BME280;70359;51.420;7.032;2023-12-22T10:33:38;987.0245;;;9.32;65.44238
80911;BME280;70359;51.420;7.032;2023-12-22T10:36:03;987.0283;;;9.33;65.54492
80911;BME280;70359;51.420;7.032;2023-12-22T10:38:28;986.9445;;;9.4;65.63379
80911;BME280;70359;51.420;7.032;2023-12-22T10:40:53;986.9619;;;9.41;65.625
80911;BME280;70359;51.420;7.032;2023-12-22T10:43:18;987.0209;;;9.44;65.75195
80911;BME280;70359;51.420;7.032;2023-12-22T10:45:43;987.0703;;;9.42;65.72754
80911;BME280;70359;51.420;7.032;2023-12-22T10:48:08;986.8748;;;9.41;66.09863
80911;BME280;70359;51.420;7.032;2023-12-22T10:50:33;986.9589;;;9.44;66.10059
80911;BME280;70359;51.420;7.032;2023-12-22T10:52:58;987.1945;;;9.47;66.13867
80911;BME280;70359;51.420;7.032;2023-12-22T10:55:23;987.1622;;;9.49;65.92871
80911;BME280;70359;51.420;7.032;2023-12-22T10:57:49;986.7772;;;9.44;66.06836
80911;BME280;70359;51.420;7.032;2023-12-22T11:00:14;987.1547;;;9.44;65.69531
80911;BME280;70359;51.420;7.032;2023-12-22T11:02:38;987.2849;;;9.42;65.18652
80911;BME280;70359;51.420;7.032;2023-12-22T11:05:04;987.2818;;;9.44;65.18848
80911;BME280;70359;51.420;7.032;2023-12-22T11:07:28;987.1225;;;9.26;65.79395
80911;BME280;70359;51.420;7.032;2023-12-22T11:09:53;986.9974;;;9.3;65.48535
80911;BME280;70359;51.420;7.032;2023-12-22T11:12:18;986.8147;;;9.3;65.51758
80911;BME280;70359;51.420;7.032;2023-12-22T11:14:43;986.8566;;;9.38;65.22656
80911;BME280;70359;51.420;7.032;2023-12-22T11:17:08;986.9338;;;9.25;64.02539
80911;BME280;70359;51.420;7.032;2023-12-22T11:19:33;986.8644;;;9.31;64.38086
80911;BME280;70359;51.420;7.032;2023-12-22T11:21:58;986.9207;;;9.25;64.72266
80911;BME280;70359;51.420;7.032;2023-12-22T11:24:23;986.8547;;;9.29;64.35449
80911;BME280;70359;51.420;7.032;2023-12-22T11:26:48;986.9064;;;9.28;64.64746
80911;BME280;70359;51.420;7.032;2023-12-22T11:29:13;986.6672;;;9.29;64.80664
80911;BME280;70359;51.420;7.032;2023-12-22T11:31:38;986.6652;;;9.24;64.50684
80911;BME280;70359;51.420;7.032;2023-12-22T11:34:03;986.6139;;;9.3;64.62891
80911;BME280;70359;51.420;7.032;2023-12-22T11:36:29;986.5627;;;9.28;64.79395
80911;BME280;70359;51.420;7.032;2023-12-22T11:38:53;986.5997;;;9.3;65.29297
80911;BME280;70359;51.420;7.032;2023-12-22T11:41:20;986.7089;;;9.33;65.22949
80911;BME280;70359;51.420;7.032;2023-12-22T11:43:43;986.7377;;;9.3;65.89063
80911;BME280;70359;51.420;7.032;2023-12-22T11:46:08;986.6872;;;9.37;65.78711
80911;BME280;70359;51.420;7.032;2023-12-22T11:48:33;986.6788;;;9.38;66.07031
80911;BME280;70359;51.420;7.032;2023-12-22T11:50:58;986.6951;;;9.37;66.28125
80911;BME280;70359;51.420;7.032;2023-12-22T11:53:24;986.6114;;;9.41;66.56055
80911;BME280;70359;51.420;7.032;2023-12-22T11:56:00;986.5662;;;9.49;66.63867
80911;BME280;70359;51.420;7.032;2023-12-22T12:00:41;986.3777;;;9.56;67.20117
80911;BME280;70359;51.420;7.032;2023-12-22T12:03:04;986.3167;;;9.59;67.47754
80911;BME280;70359;51.420;7.032;2023-12-22T12:05:28;986.1339;;;9.54;68.03223
80911;BME280;70359;51.420;7.032;2023-12-22T12:07:53;986.2645;;;9.51;68.13965
80911;BME280;70359;51.420;7.032;2023-12-22T12:12:43;986.2297;;;9.56;68.27148
80911;BME280;70359;51.420;7.032;2023-12-22T12:15:12;986.231;;;9.58;68.34375
80911;BME280;70359;51.420;7.032;2023-12-22T12:17:33;986.2647;;;9.6;68.32324
80911;BME280;70359;51.420;7.032;2023-12-22T12:19:58;986.3619;;;9.43;68.72461
80911;BME280;70359;51.420;7.032;2023-12-22T12:22:23;986.255;;;9.49;68.58691
80911;BME280;70359;51.420;7.032;2023-12-22T12:24:48;986.4192;;;9.52;68.49023
80911;BME280;70359;51.420;7.032;2023-12-22T12:27:16;986.4706;;;9.57;68.34082
80911;BME280;70359;51.420;7.032;2023-12-22T12:29:38;986.1735;;;9.47;68.92188
80911;BME280;70359;51.420;7.032;2023-12-22T12:32:06;986.2704;;;9.57;68.22754
80911;BME280;70359;51.420;7.032;2023-12-22T12:34:28;986.317;;;9.63;68.29395